createdAt,value
2019-05-16T00:00:58.605Z,4.80
2019-05-16T00:03:24.395Z,5.07
2019-05-16T00:05:54.341Z,5.37
2019-05-16T00:08:19.219Z,5.33
2019-05-16T00:10:45.684Z,5.40
2019-05-16T00:13:12.047Z,4.80
2019-05-16T00:15:38.395Z,4.83
2019-05-16T00:18:05.611Z,5.37
2019-05-16T00:20:31.963Z,4.60
2019-05-16T00:22:58.849Z,5.03
2019-05-16T00:25:25.583Z,4.83
2019-05-16T00:27:51.979Z,5.27
2019-05-16T00:30:18.536Z,4.97
2019-05-16T00:32:44.907Z,4.53
2019-05-16T00:35:11.460Z,5.33
2019-05-16T00:37:39.230Z,4.60
2019-05-16T00:40:08.214Z,5.70
2019-05-16T00:42:34.769Z,4.73
2019-05-16T00:45:01.246Z,5.10
2019-05-16T00:47:28.407Z,4.97
2019-05-16T00:49:54.883Z,4.73
2019-05-16T00:52:21.371Z,4.80
2019-05-16T00:54:48.645Z,4.90
2019-05-16T00:57:15.315Z,4.57
2019-05-16T00:59:42.063Z,5.00
2019-05-16T01:02:09.029Z,4.90
2019-05-16T01:04:38.049Z,4.90
2019-05-16T01:07:04.081Z,4.80
2019-05-16T01:09:30.535Z,3.83
2019-05-16T01:11:57.936Z,5.13
2019-05-16T01:14:24.355Z,4.40
2019-05-16T01:16:50.824Z,4.47
2019-05-16T01:19:18.668Z,4.80
2019-05-16T01:21:45.225Z,4.47
2019-05-16T01:24:11.689Z,4.70
2019-05-16T01:26:39.238Z,4.07
2019-05-16T01:29:08.121Z,5.13
2019-05-16T01:31:34.275Z,4.40
2019-05-16T01:34:00.749Z,4.73
2019-05-16T01:36:36.694Z,4.83
2019-05-16T01:38:55.495Z,4.57
2019-05-16T01:41:21.871Z,4.83
2019-05-16T01:43:48.552Z,5.10
2019-05-16T01:46:15.015Z,4.57
2019-05-16T01:48:41.584Z,4.47
2019-05-16T01:51:08.042Z,4.33
2019-05-16T01:53:34.513Z,4.93
2019-05-16T01:56:00.957Z,4.70
2019-05-16T01:58:28.992Z,5.00
2019-05-16T02:01:11.134Z,5.33
2019-05-16T02:03:24.079Z,4.53
2019-05-16T02:05:50.439Z,5.03
2019-05-16T02:08:18.241Z,5.20
2019-05-16T02:10:44.859Z,4.97
2019-05-16T02:13:11.344Z,4.57
2019-05-16T02:15:38.409Z,4.93
2019-05-16T02:18:04.995Z,4.80
2019-05-16T02:20:31.366Z,5.10
2019-05-16T02:22:58.526Z,4.60
2019-05-16T02:25:25.084Z,4.67
2019-05-16T02:27:51.591Z,4.57
2019-05-16T02:30:21.339Z,4.63
2019-05-16T02:32:46.395Z,5.30
2019-05-16T02:35:12.834Z,5.60
2019-05-16T02:37:42.087Z,4.50
2019-05-16T02:40:11.578Z,5.07
2019-05-16T02:42:36.738Z,4.80
2019-05-16T02:45:04.609Z,4.53
2019-05-16T02:47:34.605Z,4.43
2019-05-16T02:50:01.194Z,4.73
2019-05-16T02:52:27.671Z,4.53
2019-05-16T02:54:54.057Z,4.03
2019-05-16T02:57:21.449Z,4.43
2019-05-16T02:59:50.717Z,4.33
2019-05-16T03:02:16.144Z,4.43
2019-05-16T03:04:44.254Z,4.67
2019-05-16T03:07:29.978Z,4.47
2019-05-16T03:09:41.085Z,5.33
2019-05-16T03:12:10.700Z,4.97
2019-05-16T03:14:37.352Z,4.57
2019-05-16T03:17:04.394Z,4.83
2019-05-16T03:19:32.764Z,3.80
2019-05-16T03:22:01.170Z,4.50
2019-05-16T03:24:30.790Z,4.53
2019-05-16T03:26:56.128Z,4.27
2019-05-16T03:29:22.599Z,3.93
2019-05-16T03:31:54.020Z,4.67
2019-05-16T03:34:24.421Z,4.50
2019-05-16T03:36:45.896Z,3.83
2019-05-16T03:39:12.470Z,4.20
2019-05-16T03:41:41.497Z,4.20
2019-05-16T03:44:07.084Z,3.70
2019-05-16T03:46:33.458Z,3.97
2019-05-16T03:49:02.417Z,3.80
2019-05-16T03:51:30.705Z,4.03
2019-05-16T03:53:56.352Z,3.97
2019-05-16T03:56:22.687Z,3.80
2019-05-16T03:58:50.965Z,3.80
2019-05-16T04:01:17.407Z,4.00
2019-05-16T04:03:43.956Z,3.43
2019-05-16T04:06:11.973Z,3.50
2019-05-16T04:08:41.119Z,4.00
2019-05-16T04:11:06.971Z,4.10
2019-05-16T04:13:33.420Z,3.50
2019-05-16T04:16:01.292Z,3.90
2019-05-16T04:18:31.838Z,3.70
2019-05-16T04:20:56.868Z,3.80
2019-05-16T04:23:23.248Z,3.40
2019-05-16T04:25:52.253Z,3.53
2019-05-16T04:28:21.361Z,2.67
2019-05-16T04:30:46.343Z,3.27
2019-05-16T04:33:12.694Z,3.27
2019-05-16T04:35:41.200Z,3.40
2019-05-16T04:38:07.361Z,2.90
2019-05-16T04:40:33.821Z,3.30
2019-05-16T04:43:01.209Z,2.90
2019-05-16T04:45:27.739Z,3.17
2019-05-16T04:47:54.299Z,3.47
2019-05-16T04:50:21.289Z,2.83
2019-05-16T04:52:47.826Z,2.40
2019-05-16T04:55:14.396Z,2.50
2019-05-16T04:57:42.261Z,2.60
2019-05-16T05:00:11.297Z,2.90
2019-05-16T05:02:41.215Z,2.50
2019-05-16T05:05:06.150Z,3.20
2019-05-16T05:07:32.508Z,2.83
2019-05-16T05:10:00.521Z,2.93
2019-05-16T05:12:27.431Z,2.80
2019-05-16T05:14:55.173Z,2.67
2019-05-16T05:17:21.615Z,2.80
2019-05-16T05:19:50.477Z,2.90
2019-05-16T05:22:16.374Z,2.57
2019-05-16T05:24:42.922Z,2.57
2019-05-16T05:27:10.463Z,2.60
2019-05-16T05:29:39.665Z,2.50
2019-05-16T05:32:05.692Z,2.60
2019-05-16T05:34:32.199Z,2.10
2019-05-16T05:37:00.316Z,2.57
2019-05-16T05:39:26.876Z,2.63
2019-05-16T05:41:53.335Z,2.80
2019-05-16T05:44:20.357Z,2.67
2019-05-16T05:46:46.958Z,2.40
2019-05-16T05:49:13.311Z,2.40
2019-05-16T05:51:40.608Z,2.40
2019-05-16T05:54:07.167Z,2.23
2019-05-16T05:56:33.543Z,2.00
2019-05-16T05:59:01.525Z,2.50
2019-05-16T06:01:31.239Z,2.30
2019-05-16T06:03:56.306Z,2.53
2019-05-16T06:06:22.913Z,2.60
2019-05-16T06:08:50.207Z,2.17
2019-05-16T06:11:16.760Z,2.33
2019-05-16T06:13:43.116Z,2.43
2019-05-16T06:16:10.739Z,2.20
2019-05-16T06:18:39.571Z,2.33
2019-05-16T06:21:05.757Z,2.53
2019-05-16T06:23:34.848Z,2.60
2019-05-16T06:26:01.308Z,2.47
2019-05-16T06:28:30.261Z,2.70
2019-05-16T06:30:55.955Z,2.47
2019-05-16T06:33:22.639Z,2.20
2019-05-16T06:35:51.223Z,2.30
2019-05-16T06:38:21.100Z,2.37
2019-05-16T06:40:49.962Z,2.60
2019-05-16T06:43:16.339Z,2.03
2019-05-16T06:45:42.939Z,2.50
2019-05-16T06:48:10.069Z,2.60
2019-05-16T06:50:36.652Z,2.37
2019-05-16T06:53:03.048Z,2.47
2019-05-16T06:55:29.716Z,2.27
2019-05-16T06:57:57.364Z,2.33
2019-05-16T07:00:23.987Z,2.57
2019-05-16T07:02:50.478Z,3.10
2019-05-16T07:05:16.919Z,2.27
2019-05-16T07:07:43.497Z,2.43
2019-05-16T07:10:10.118Z,2.67
2019-05-16T07:12:36.656Z,2.10
2019-05-16T07:15:04.816Z,2.43
2019-05-16T07:17:31.303Z,2.20
2019-05-16T07:19:57.660Z,2.70
2019-05-16T07:22:24.013Z,2.60
2019-05-16T07:24:50.646Z,2.17
2019-05-16T07:27:17.139Z,2.53
2019-05-16T07:29:43.502Z,2.10
2019-05-16T07:32:12.479Z,2.40
2019-05-16T07:34:40.221Z,2.53
2019-05-16T07:37:06.634Z,2.40
2019-05-16T07:39:33.060Z,2.60
2019-05-16T07:42:00.037Z,2.30
2019-05-16T07:44:26.520Z,2.40
2019-05-16T07:46:54.701Z,2.60
2019-05-16T07:49:21.051Z,2.73
2019-05-16T07:51:49.720Z,2.70
2019-05-16T07:54:15.903Z,2.27
2019-05-16T07:56:42.378Z,2.20
2019-05-16T07:59:10.352Z,2.60
2019-05-16T08:01:37.089Z,2.63
2019-05-16T08:04:03.553Z,3.07
2019-05-16T08:06:31.089Z,2.70
2019-05-16T08:09:00.241Z,2.13
2019-05-16T08:11:26.615Z,2.20
2019-05-16T08:13:53.164Z,3.00
2019-05-16T08:16:20.749Z,2.50
2019-05-16T08:18:50.353Z,2.50
2019-05-16T08:21:16.908Z,2.72
2019-05-16T08:23:43.658Z,2.30
2019-05-16T08:26:10.444Z,2.30
2019-05-16T08:28:37.083Z,2.90
2019-05-16T08:31:03.555Z,2.52
2019-05-16T08:33:31.989Z,2.33
2019-05-16T08:36:04.751Z,2.87
2019-05-16T08:38:26.631Z,2.58
2019-05-16T08:41:14.401Z,2.60
2019-05-16T08:43:22.071Z,2.75
2019-05-16T08:45:51.492Z,2.85
2019-05-16T08:48:22.374Z,2.40
2019-05-16T08:50:53.743Z,2.58
2019-05-16T08:53:14.101Z,2.33
2019-05-16T08:55:43.356Z,2.30
2019-05-16T08:58:13.457Z,2.37
2019-05-16T09:00:37.315Z,2.20
2019-05-16T09:03:03.810Z,2.70
2019-05-16T09:05:31.582Z,2.00
2019-05-16T09:08:00.813Z,2.70
2019-05-16T09:12:57.229Z,2.27
2019-05-16T09:15:23.311Z,2.70
2019-05-16T09:17:49.804Z,2.52
2019-05-16T09:20:17.422Z,2.55
2019-05-16T09:22:44.127Z,2.37
2019-05-16T09:25:10.789Z,2.40
2019-05-16T09:27:38.119Z,3.12
2019-05-16T09:30:07.172Z,2.67
2019-05-16T09:32:36.670Z,2.40
2019-05-16T09:35:04.047Z,2.40
2019-05-16T09:37:30.556Z,2.90
2019-05-16T09:39:57.434Z,2.58
2019-05-16T09:42:24.008Z,2.70
2019-05-16T09:44:50.355Z,2.55
2019-05-16T09:47:17.549Z,2.72
2019-05-16T09:49:44.292Z,2.60
2019-05-16T09:52:10.640Z,2.77
2019-05-16T09:54:37.883Z,2.87
2019-05-16T09:57:06.579Z,2.67
2019-05-16T09:59:33.055Z,2.62
2019-05-16T10:01:59.513Z,2.80
2019-05-16T10:04:26.706Z,2.83
2019-05-16T10:06:53.351Z,2.77
2019-05-16T10:09:19.715Z,2.80
2019-05-16T10:11:49.326Z,2.87
2019-05-16T10:14:14.452Z,3.02
2019-05-16T10:16:40.904Z,2.92
2019-05-16T10:19:07.585Z,2.65
2019-05-16T10:21:36.961Z,2.80
2019-05-16T10:24:02.399Z,2.90
2019-05-16T10:26:28.845Z,2.60
2019-05-16T10:28:57.472Z,2.70
2019-05-16T10:31:39.507Z,2.73
2019-05-16T10:33:52.044Z,2.80
2019-05-16T10:36:21.634Z,2.70
2019-05-16T10:38:48.493Z,2.70
2019-05-16T10:41:15.186Z,2.50
2019-05-16T10:43:41.567Z,2.90
2019-05-16T10:46:08.120Z,2.65
2019-05-16T10:48:34.538Z,2.90
2019-05-16T10:51:00.931Z,2.65
2019-05-16T10:53:52.339Z,3.05
2019-05-16T10:55:57.166Z,3.02
2019-05-16T10:58:36.421Z,2.80
2019-05-16T11:01:22.245Z,3.00
2019-05-16T11:03:20.714Z,3.03
2019-05-16T11:06:01.333Z,3.40
2019-05-16T11:08:15.525Z,3.20
2019-05-16T11:10:41.947Z,3.85
2019-05-16T11:13:08.536Z,3.40
2019-05-16T11:15:37.295Z,3.50
2019-05-16T11:18:03.195Z,3.57
2019-05-16T11:20:29.719Z,3.03
2019-05-16T11:22:57.228Z,3.43
2019-05-16T11:25:28.555Z,3.80
2019-05-16T11:27:52.027Z,3.55
2019-05-16T11:30:18.860Z,3.75
2019-05-16T11:32:46.931Z,4.05
2019-05-16T11:35:13.856Z,3.75
2019-05-16T11:37:40.351Z,4.00
2019-05-16T11:40:07.024Z,3.85
2019-05-16T11:42:33.775Z,3.92
2019-05-16T11:45:00.205Z,4.13
2019-05-16T11:47:27.244Z,4.20
2019-05-16T11:49:57.059Z,3.47
2019-05-16T11:52:23.491Z,4.03
2019-05-16T11:54:49.961Z,3.77
2019-05-16T11:57:17.958Z,4.30
2019-05-16T11:59:46.980Z,3.90
2019-05-16T12:02:12.849Z,3.80
2019-05-16T12:04:39.315Z,4.17
2019-05-16T12:07:07.577Z,4.20
2019-05-16T12:09:37.346Z,4.10
2019-05-16T12:12:04.249Z,4.37
2019-05-16T12:14:30.607Z,4.33
2019-05-16T12:16:57.052Z,4.27
2019-05-16T12:19:33.541Z,4.43
2019-05-16T12:21:52.695Z,4.20
2019-05-16T12:24:31.822Z,4.10
2019-05-16T12:26:47.956Z,4.10
2019-05-16T12:29:17.123Z,4.10
2019-05-16T12:31:55.226Z,3.90
2019-05-16T12:34:11.129Z,4.60
2019-05-16T12:36:37.927Z,3.90
2019-05-16T12:39:07.779Z,4.00
2019-05-16T12:41:33.748Z,4.00
2019-05-16T12:44:00.196Z,3.73
2019-05-16T12:46:27.176Z,4.00
2019-05-16T12:48:53.751Z,3.80
2019-05-16T12:51:20.126Z,3.90
2019-05-16T12:53:47.828Z,4.20
2019-05-16T12:56:17.354Z,4.97
2019-05-16T12:58:42.892Z,4.80
2019-05-16T13:01:09.384Z,4.03
2019-05-16T13:03:37.802Z,4.40
2019-05-16T13:06:04.210Z,5.37
2019-05-16T13:08:30.558Z,5.53
2019-05-16T13:10:57.780Z,5.20
2019-05-16T13:13:24.397Z,5.23
2019-05-16T13:15:50.764Z,5.10
2019-05-16T13:18:17.256Z,5.67
2019-05-16T13:20:43.696Z,4.93
2019-05-16T13:23:14.512Z,5.17
2019-05-16T13:25:38.465Z,5.60
2019-05-16T13:28:07.895Z,4.53
2019-05-16T13:30:33.605Z,5.57
2019-05-16T13:32:59.951Z,5.30
2019-05-16T13:35:27.143Z,4.80
2019-05-16T13:37:53.707Z,4.90
2019-05-16T13:40:20.085Z,4.83
2019-05-16T13:42:48.069Z,4.43
2019-05-16T13:45:17.672Z,4.83
2019-05-16T13:47:43.516Z,4.33
2019-05-16T13:50:11.987Z,4.43
2019-05-16T13:52:38.648Z,3.90
2019-05-16T13:55:07.032Z,4.47
2019-05-16T13:57:33.699Z,4.10
2019-05-16T14:00:00.254Z,4.23
2019-05-16T14:02:26.835Z,4.50
2019-05-16T14:04:53.192Z,4.57
2019-05-16T14:07:19.658Z,5.40
2019-05-16T14:09:47.112Z,5.13
2019-05-16T14:12:13.903Z,4.60
2019-05-16T14:14:42.484Z,4.70
2019-05-16T14:17:13.989Z,5.00
2019-05-16T14:19:37.544Z,5.13
2019-05-16T14:22:04.107Z,4.63
2019-05-16T14:24:30.451Z,4.60
2019-05-16T14:26:57.377Z,4.03
2019-05-16T14:29:23.780Z,4.40
2019-05-16T14:31:50.244Z,4.90
2019-05-16T14:34:18.081Z,4.27
2019-05-16T14:36:47.410Z,4.17
2019-05-16T14:39:13.675Z,4.00
2019-05-16T14:41:40.199Z,3.80
2019-05-16T14:44:06.544Z,4.67
2019-05-16T14:46:32.907Z,4.27
2019-05-16T14:48:59.323Z,4.03
2019-05-16T14:51:29.379Z,4.30
2019-05-16T14:53:57.321Z,3.90
2019-05-16T14:56:23.642Z,3.43
2019-05-16T14:58:49.995Z,4.00
2019-05-16T15:01:17.600Z,3.90
2019-05-16T15:03:46.825Z,4.23
2019-05-16T15:06:12.647Z,3.47
2019-05-16T15:08:38.994Z,3.30
2019-05-16T15:11:08.325Z,2.47
2019-05-16T15:13:34.785Z,3.00
2019-05-16T15:16:01.327Z,3.00
2019-05-16T15:18:28.067Z,2.90
2019-05-16T15:20:57.305Z,2.90
2019-05-16T15:23:23.057Z,3.00
2019-05-16T15:25:49.491Z,2.57
2019-05-16T15:28:17.212Z,3.00
2019-05-16T15:30:46.227Z,2.87
2019-05-16T15:33:19.355Z,2.80
2019-05-16T15:35:42.374Z,2.83
2019-05-16T15:38:08.840Z,3.00
2019-05-16T15:40:37.489Z,3.90
2019-05-16T15:43:03.652Z,3.60
2019-05-16T15:45:38.063Z,2.97
2019-05-16T15:48:00.389Z,2.70
2019-05-16T15:50:28.189Z,2.40
2019-05-16T15:52:58.996Z,2.80
2019-05-16T15:55:23.498Z,2.77
2019-05-16T15:57:49.933Z,2.30
2019-05-16T16:00:18.436Z,3.00
2019-05-16T16:02:44.976Z,2.47
2019-05-16T16:05:11.523Z,3.40
2019-05-16T16:07:38.315Z,3.10
2019-05-16T16:10:07.039Z,2.60
2019-05-16T16:12:33.712Z,2.63
2019-05-16T16:15:00.255Z,2.60
2019-05-16T16:17:29.098Z,2.90
2019-05-16T16:19:57.777Z,3.03
2019-05-16T16:22:23.554Z,3.03
2019-05-16T16:24:49.914Z,3.13
2019-05-16T16:27:16.776Z,3.10
2019-05-16T16:29:43.633Z,2.83
2019-05-16T16:32:10.003Z,2.80
2019-05-16T16:34:36.854Z,3.40
2019-05-16T16:37:04.494Z,4.17
2019-05-16T16:39:30.939Z,3.50
2019-05-16T16:41:57.659Z,4.07
2019-05-16T16:44:24.135Z,4.33
2019-05-16T16:46:50.495Z,3.67
2019-05-16T16:49:17.446Z,4.07
2019-05-16T16:51:43.924Z,4.13
2019-05-16T16:54:10.407Z,4.67
2019-05-16T16:56:37.157Z,4.37
2019-05-16T16:59:06.312Z,4.80
2019-05-16T17:01:32.281Z,4.67
2019-05-16T17:03:58.839Z,5.43
2019-05-16T17:06:27.075Z,5.93
2019-05-16T17:08:53.656Z,4.83
2019-05-16T17:11:20.095Z,4.73
2019-05-16T17:13:47.256Z,4.30
2019-05-16T17:16:24.769Z,3.70
2019-05-16T17:18:42.488Z,3.77
2019-05-16T17:21:09.841Z,3.77
2019-05-16T17:23:37.039Z,3.30
2019-05-16T17:26:03.895Z,3.83
2019-05-16T17:28:30.251Z,3.30
2019-05-16T17:30:56.842Z,3.30
2019-05-16T17:33:23.367Z,3.60
2019-05-16T17:35:49.951Z,3.60
2019-05-16T17:38:17.331Z,3.20
2019-05-16T17:40:46.281Z,3.23
2019-05-16T17:43:12.239Z,3.03
2019-05-16T17:45:38.643Z,3.20
2019-05-16T17:48:06.712Z,3.43
2019-05-16T17:50:33.467Z,4.30
2019-05-16T17:53:00.054Z,4.23
2019-05-16T17:55:26.986Z,3.40
2019-05-16T17:57:53.459Z,3.67
2019-05-16T18:00:25.017Z,3.90
2019-05-16T18:02:48.159Z,4.00
2019-05-16T18:05:16.749Z,4.00
2019-05-16T18:07:42.984Z,3.83
2019-05-16T18:10:09.954Z,4.37
2019-05-16T18:12:37.230Z,3.97
2019-05-16T18:15:08.417Z,3.43
2019-05-16T18:17:36.058Z,3.63
2019-05-16T18:20:06.132Z,4.10
2019-05-16T18:22:32.346Z,3.77
2019-05-16T18:24:58.918Z,4.33
2019-05-16T18:27:27.334Z,4.10
2019-05-16T18:29:53.768Z,4.00
2019-05-16T18:32:20.128Z,3.20
2019-05-16T18:34:46.590Z,3.33
2019-05-16T18:37:13.189Z,3.00
2019-05-16T18:39:39.668Z,3.47
2019-05-16T18:42:06.099Z,3.70
2019-05-16T18:44:32.571Z,3.37
2019-05-16T18:47:06.963Z,3.97
2019-05-16T18:49:27.291Z,4.17
2019-05-16T18:51:53.768Z,4.67
2019-05-16T18:54:20.124Z,4.13
2019-05-16T18:56:47.297Z,4.20
2019-05-16T18:59:16.887Z,4.60
2019-05-16T19:01:43.456Z,5.50
2019-05-16T19:04:09.819Z,4.33
2019-05-16T19:06:37.063Z,4.40
2019-05-16T19:09:06.975Z,4.50
2019-05-16T19:11:33.003Z,5.03
2019-05-16T19:13:59.532Z,4.73
2019-05-16T19:16:26.293Z,5.27
2019-05-16T19:18:52.910Z,5.60
2019-05-16T19:21:19.276Z,5.20
2019-05-16T19:23:45.775Z,4.97
2019-05-16T19:26:12.327Z,4.60
2019-05-16T19:28:38.683Z,4.30
2019-05-16T19:31:06.614Z,4.83
2019-05-16T19:33:33.435Z,4.80
2019-05-16T19:35:59.952Z,4.60
2019-05-16T19:38:29.208Z,5.10
2019-05-16T19:40:57.209Z,4.33
2019-05-16T19:43:23.012Z,4.63
2019-05-16T19:45:49.483Z,4.90
2019-05-16T19:48:17.427Z,4.83
2019-05-16T19:50:46.240Z,5.00
2019-05-16T19:53:12.462Z,5.73
2019-05-16T19:55:39.018Z,5.97
2019-05-16T19:58:06.835Z,5.60
2019-05-16T20:00:33.646Z,13.43
2019-05-16T20:03:00.114Z,8.80
2019-05-16T20:05:26.813Z,7.73
2019-05-16T20:07:53.326Z,6.10
2019-05-16T20:10:20.003Z,6.77
2019-05-16T20:12:46.446Z,8.27
2019-05-16T20:15:13.217Z,6.83
2019-05-16T20:17:51.066Z,7.17
2019-05-16T20:20:08.627Z,7.10
2019-05-16T20:22:36.924Z,7.10
2019-05-16T20:25:04.263Z,7.67
2019-05-16T20:27:30.612Z,7.47
2019-05-16T20:29:59.380Z,7.13
2019-05-16T20:32:27.634Z,8.97
2019-05-16T20:34:53.695Z,10.57
2019-05-16T20:37:20.278Z,10.07
2019-05-16T20:39:46.856Z,10.37
2019-05-16T20:42:13.304Z,10.37
2019-05-16T20:44:39.770Z,9.37
2019-05-16T20:47:07.268Z,9.47
2019-05-16T20:49:34.022Z,9.97
2019-05-16T20:52:00.363Z,9.40
2019-05-16T20:54:26.935Z,10.53
2019-05-16T20:56:53.491Z,10.23
2019-05-16T20:59:19.941Z,12.43
2019-05-16T21:01:49.184Z,11.27
2019-05-16T21:04:17.133Z,10.90
2019-05-16T21:06:56.812Z,11.43
2019-05-16T21:09:16.802Z,12.53
2019-05-16T21:11:42.853Z,12.73
2019-05-16T21:14:09.295Z,11.63
2019-05-16T21:16:38.000Z,11.90
2019-05-16T21:19:03.898Z,12.50
2019-05-16T21:21:30.291Z,12.97
2019-05-16T21:23:58.051Z,12.80
2019-05-16T21:26:26.291Z,12.37
2019-05-16T21:28:52.671Z,12.20
2019-05-16T21:31:19.360Z,14.03
2019-05-16T21:33:47.051Z,15.33
2019-05-16T21:36:16.049Z,15.50
2019-05-16T21:38:42.247Z,13.90
2019-05-16T21:41:08.815Z,14.53
2019-05-16T21:43:37.489Z,14.60
2019-05-16T21:46:03.531Z,14.67
2019-05-16T21:48:29.975Z,14.90
2019-05-16T21:50:57.041Z,16.37
2019-05-16T21:53:23.493Z,15.83
2019-05-16T21:55:50.106Z,15.07
2019-05-16T21:58:16.657Z,14.70
2019-05-16T22:00:47.214Z,14.67
2019-05-16T22:03:13.171Z,14.53
2019-05-16T22:05:39.752Z,14.47
2019-05-16T22:08:07.426Z,15.53
2019-05-16T22:10:34.442Z,14.60
2019-05-16T22:13:00.839Z,13.97
2019-05-16T22:15:27.187Z,15.43
2019-05-16T22:17:53.549Z,15.57
2019-05-16T22:20:20.193Z,16.17
2019-05-16T22:22:47.084Z,15.43
2019-05-16T22:25:13.803Z,15.80
2019-05-16T22:27:40.267Z,14.53
2019-05-16T22:30:08.515Z,15.50
2019-05-16T22:32:36.354Z,15.10
2019-05-16T22:35:04.443Z,14.73
2019-05-16T22:37:30.936Z,16.53
2019-05-16T22:39:59.645Z,15.00
2019-05-16T22:42:26.796Z,15.30
2019-05-16T22:44:53.212Z,15.50
2019-05-16T22:47:19.696Z,16.17
2019-05-16T22:49:47.584Z,16.17
2019-05-16T22:52:14.211Z,15.70
2019-05-16T22:54:40.659Z,15.97
2019-05-16T22:57:07.076Z,16.40
2019-05-16T22:59:33.611Z,16.23
2019-05-16T23:02:00.175Z,15.97
2019-05-16T23:04:27.346Z,15.17
2019-05-16T23:06:53.823Z,15.07
2019-05-16T23:09:20.272Z,15.70
2019-05-16T23:11:46.642Z,16.67
2019-05-16T23:14:12.989Z,15.87
2019-05-16T23:16:39.460Z,15.73
2019-05-16T23:19:06.620Z,15.20
2019-05-16T23:21:33.281Z,16.20
2019-05-16T23:23:59.627Z,15.73
2019-05-16T23:26:26.939Z,15.50
2019-05-16T23:28:53.447Z,16.40
2019-05-16T23:31:19.796Z,16.10
2019-05-16T23:33:47.042Z,16.27
2019-05-16T23:36:13.670Z,16.47
2019-05-16T23:38:40.035Z,16.60
2019-05-16T23:41:06.767Z,15.23
2019-05-16T23:43:33.451Z,15.40
2019-05-16T23:45:59.896Z,15.83
2019-05-16T23:48:26.483Z,18.17
2019-05-16T23:50:52.828Z,16.87
2019-05-16T23:53:19.196Z,15.70
2019-05-16T23:55:47.091Z,16.23
2019-05-16T23:58:15.082Z,15.40
